createdAt,value
2023-02-23T00:00:14.933Z,64.01
2023-02-23T00:02:49.783Z,64.21
2023-02-23T00:05:35.597Z,64.29
2023-02-23T00:08:06.493Z,64.22
2023-02-23T00:10:36.495Z,64.26
2023-02-23T00:13:06.135Z,64.58
2023-02-23T00:15:40.804Z,64.57
2023-02-23T00:18:14.998Z,64.39
2023-02-23T00:20:45.141Z,64.41
2023-02-23T00:23:38.189Z,64.49
2023-02-23T00:26:08.538Z,64.89
2023-02-23T00:28:48.879Z,65.11
2023-02-23T00:31:26.847Z,64.75
2023-02-23T00:33:59.979Z,64.89
2023-02-23T00:36:55.627Z,65.19
2023-02-23T00:39:30.818Z,65.22
2023-02-23T00:42:03.915Z,65.09
2023-02-23T00:44:34.235Z,64.98
2023-02-23T00:47:05.533Z,65.12
2023-02-23T00:49:37.902Z,64.95
2023-02-23T00:52:06.950Z,64.89
2023-02-23T00:54:37.522Z,65.00
2023-02-23T00:57:26.670Z,65.08
2023-02-23T01:00:00.090Z,65.05
2023-02-23T01:02:31.828Z,65.39
2023-02-23T01:05:06.511Z,65.40
2023-02-23T01:07:56.863Z,65.65
2023-02-23T01:10:27.604Z,65.50
2023-02-23T01:12:59.584Z,65.47
2023-02-23T01:15:28.599Z,64.86
2023-02-23T01:17:59.458Z,64.61
2023-02-23T01:20:54.537Z,63.52
2023-02-23T01:23:43.603Z,63.60
2023-02-23T01:26:23.262Z,62.99
2023-02-23T01:28:56.581Z,62.62
2023-02-23T01:31:30.012Z,62.21
2023-02-23T01:34:01.827Z,62.23
2023-02-23T01:36:39.484Z,62.15
2023-02-23T01:39:12.686Z,61.94
2023-02-23T01:41:44.995Z,61.88
2023-02-23T01:44:16.428Z,61.85
2023-02-23T01:46:49.791Z,61.76
2023-02-23T01:49:21.447Z,62.11
2023-02-23T01:52:12.292Z,62.34
2023-02-23T01:54:45.779Z,62.18
2023-02-23T01:57:15.300Z,62.06
2023-02-23T01:59:49.672Z,62.24
2023-02-23T02:02:20.873Z,62.31
2023-02-23T02:04:52.740Z,62.42
2023-02-23T02:07:28.319Z,62.32
2023-02-23T02:10:11.854Z,62.75
2023-02-23T02:12:48.552Z,62.74
2023-02-23T02:15:34.273Z,62.66
2023-02-23T02:18:19.432Z,62.59
2023-02-23T02:21:05.381Z,62.41
2023-02-23T02:24:06.269Z,62.34
2023-02-23T02:27:06.016Z,62.62
2023-02-23T02:30:14.258Z,62.33
2023-02-23T02:32:47.547Z,62.31
2023-02-23T02:35:26.253Z,61.96
2023-02-23T02:38:32.436Z,62.14
2023-02-23T02:41:41.858Z,62.01
2023-02-23T02:44:28.460Z,62.15
2023-02-23T02:47:05.818Z,62.40
2023-02-23T02:49:49.581Z,62.51
2023-02-23T02:52:24.607Z,62.70
2023-02-23T02:54:56.994Z,62.54
2023-02-23T02:57:27.718Z,62.43
2023-02-23T03:00:24.481Z,62.38
2023-02-23T03:03:13.217Z,62.26
2023-02-23T03:06:04.817Z,61.83
2023-02-23T03:09:08.179Z,61.69
2023-02-23T03:12:00.490Z,61.17
2023-02-23T03:14:54.803Z,60.91
2023-02-23T03:17:53.017Z,60.73
2023-02-23T03:21:02.004Z,60.66
2023-02-23T03:23:59.044Z,60.60
2023-02-23T03:27:08.892Z,60.55
2023-02-23T03:30:02.444Z,60.35
2023-02-23T03:33:20.851Z,60.17
2023-02-23T03:36:17.120Z,60.86
2023-02-23T03:39:32.709Z,61.29
2023-02-23T03:42:21.363Z,61.15
2023-02-23T03:45:10.864Z,61.30
2023-02-23T03:47:59.604Z,61.45
2023-02-23T03:51:05.148Z,61.60
2023-02-23T03:53:59.733Z,61.81
2023-02-23T03:56:47.589Z,61.90
2023-02-23T03:59:35.613Z,61.97
2023-02-23T04:02:22.938Z,61.65
2023-02-23T04:05:11.292Z,61.51
2023-02-23T04:07:59.482Z,61.43
2023-02-23T04:10:47.114Z,61.41
2023-02-23T04:13:19.756Z,61.70
2023-02-23T04:16:02.365Z,61.61
2023-02-23T04:18:34.430Z,61.31
2023-02-23T04:21:03.174Z,61.32
2023-02-23T04:23:32.456Z,61.27
2023-02-23T04:26:04.052Z,61.34
2023-02-23T04:28:35.499Z,61.18
2023-02-23T04:31:04.751Z,60.92
2023-02-23T04:33:34.974Z,60.78
2023-02-23T04:36:03.769Z,60.73
2023-02-23T04:38:43.465Z,60.57
2023-02-23T04:41:11.957Z,60.49
2023-02-23T04:43:42.019Z,60.51
2023-02-23T04:46:11.023Z,60.61
2023-02-23T04:48:39.790Z,60.67
2023-02-23T04:51:09.031Z,60.63
2023-02-23T04:53:38.443Z,60.80
2023-02-23T04:56:08.005Z,60.41
2023-02-23T04:58:36.853Z,60.29
2023-02-23T05:01:11.240Z,60.55
2023-02-23T05:03:40.453Z,60.41
2023-02-23T05:06:09.969Z,60.64
2023-02-23T05:08:38.647Z,60.81
2023-02-23T05:11:09.063Z,60.70
2023-02-23T05:13:40.691Z,60.69
2023-02-23T05:16:09.581Z,60.52
2023-02-23T05:18:39.731Z,60.79
2023-02-23T05:21:14.762Z,60.92
2023-02-23T05:23:45.874Z,60.65
2023-02-23T05:29:37.825Z,60.53
2023-02-23T05:35:16.075Z,59.95
2023-02-23T05:37:45.864Z,59.90
2023-02-23T05:40:44.431Z,60.00
2023-02-23T05:59:23.685Z,53.39
2023-02-23T06:01:56.070Z,52.79
2023-02-23T06:07:59.915Z,49.37
2023-02-23T06:11:07.947Z,47.54
2023-02-23T06:17:22.408Z,44.91
2023-02-23T06:20:22.031Z,43.44
2023-02-23T06:23:05.836Z,41.69
2023-02-23T06:25:39.373Z,40.20
2023-02-23T06:28:16.546Z,39.72
2023-02-23T06:30:53.041Z,39.08
2023-02-23T06:33:22.634Z,38.42
2023-02-23T06:36:01.900Z,36.72
2023-02-23T06:38:54.726Z,36.49
2023-02-23T07:02:17.258Z,40.97
2023-02-23T07:05:11.201Z,41.82
2023-02-23T09:50:02.013Z,27.22
2023-02-23T11:40:42.631Z,30.08
2023-02-23T12:43:33.292Z,37.93
2023-02-23T12:47:41.282Z,38.37
2023-02-23T14:21:40.731Z,45.91
2023-02-23T23:42:05.104Z,68.81
2023-02-23T23:44:37.359Z,68.73
2023-02-23T23:47:18.094Z,68.43
2023-02-23T23:50:13.062Z,68.09
2023-02-23T23:53:07.896Z,67.46
2023-02-23T23:56:01.924Z,66.90
2023-02-23T23:58:40.629Z,66.50
